sensor_id;sensor_type;location;lat;lon;timestamp;pressure;altitude;pressure_sealevel;temperature;humidity
62864;BME280;48954;59.950;11.014;2023-07-20T00:00:40;98443.16;;;11.87;60.14
62864;BME280;48954;59.950;11.014;2023-07-20T00:05:52;98440.90;;;11.72;60.41
62864;BME280;48954;59.950;11.014;2023-07-20T00:08:18;98443.69;;;11.65;60.21
62864;BME280;48954;59.950;11.014;2023-07-20T00:13:11;98442.46;;;11.48;60.61
62864;BME280;48954;59.950;11.014;2023-07-20T00:19:08;98444.16;;;11.26;61.29
62864;BME280;48954;59.950;11.014;2023-07-20T00:21:34;98438.49;;;11.20;61.29
62864;BME280;48954;59.950;11.014;2023-07-20T00:24:01;98440.95;;;11.13;61.52
62864;BME280;48954;59.950;11.014;2023-07-20T00:26:27;98439.92;;;11.06;61.49
62864;BME280;48954;59.950;11.014;2023-07-20T00:28:54;98439.63;;;11.02;61.71
62864;BME280;48954;59.950;11.014;2023-07-20T00:31:20;98441.98;;;10.98;61.86
62864;BME280;48954;59.950;11.014;2023-07-20T00:36:12;98446.08;;;10.89;62.12
62864;BME280;48954;59.950;11.014;2023-07-20T00:38:38;98446.86;;;10.86;61.95
62864;BME280;48954;59.950;11.014;2023-07-20T00:41:05;98442.52;;;10.82;62.36
62864;BME280;48954;59.950;11.014;2023-07-20T00:43:31;98445.66;;;10.78;62.23
62864;BME280;48954;59.950;11.014;2023-07-20T00:45:58;98442.92;;;10.74;62.46
62864;BME280;48954;59.950;11.014;2023-07-20T00:48:26;98443.85;;;10.69;62.57
62864;BME280;48954;59.950;11.014;2023-07-20T00:50:52;98452.02;;;10.65;62.81
62864;BME280;48954;59.950;11.014;2023-07-20T00:53:19;98446.13;;;10.60;62.76
62864;BME280;48954;59.950;11.014;2023-07-20T00:55:45;98448.55;;;10.56;62.87
62864;BME280;48954;59.950;11.014;2023-07-20T00:58:12;98448.16;;;10.53;63.09
62864;BME280;48954;59.950;11.014;2023-07-20T01:00:40;98450.59;;;10.49;63.24
62864;BME280;48954;59.950;11.014;2023-07-20T01:03:07;98450.80;;;10.44;63.26
62864;BME280;48954;59.950;11.014;2023-07-20T01:05:59;98450.88;;;10.40;63.36
62864;BME280;48954;59.950;11.014;2023-07-20T01:11:38;98453.90;;;10.24;63.63
62864;BME280;48954;59.950;11.014;2023-07-20T01:14:10;98456.21;;;10.17;63.94
62864;BME280;48954;59.950;11.014;2023-07-20T01:16:38;98458.47;;;10.09;64.03
62864;BME280;48954;59.950;11.014;2023-07-20T01:19:04;98457.09;;;10.02;64.35
62864;BME280;48954;59.950;11.014;2023-07-20T01:21:48;98457.88;;;9.97;64.37
62864;BME280;48954;59.950;11.014;2023-07-20T01:27:39;98457.02;;;9.81;64.58
62864;BME280;48954;59.950;11.014;2023-07-20T01:33:31;98455.78;;;9.69;65.13
62864;BME280;48954;59.950;11.014;2023-07-20T01:36:00;98460.77;;;9.65;65.14
62864;BME280;48954;59.950;11.014;2023-07-20T01:38:28;98457.78;;;9.61;65.38
62864;BME280;48954;59.950;11.014;2023-07-20T01:40:55;98458.40;;;9.60;65.52
62864;BME280;48954;59.950;11.014;2023-07-20T01:43:23;98460.28;;;9.59;65.58
62864;BME280;48954;59.950;11.014;2023-07-20T01:45:50;98458.23;;;9.57;65.60
62864;BME280;48954;59.950;11.014;2023-07-20T01:48:16;98457.42;;;9.53;65.65
62864;BME280;48954;59.950;11.014;2023-07-20T01:50:43;98455.20;;;9.49;65.91
62864;BME280;48954;59.950;11.014;2023-07-20T01:53:09;98457.14;;;9.45;65.84
62864;BME280;48954;59.950;11.014;2023-07-20T01:55:35;98454.06;;;9.43;66.04
62864;BME280;48954;59.950;11.014;2023-07-20T01:58:03;98452.55;;;9.40;66.09
62864;BME280;48954;59.950;11.014;2023-07-20T02:00:30;98451.20;;;9.38;66.28
62864;BME280;48954;59.950;11.014;2023-07-20T02:02:57;98451.19;;;9.35;66.23
62864;BME280;48954;59.950;11.014;2023-07-20T02:05:24;98452.67;;;9.32;66.30
62864;BME280;48954;59.950;11.014;2023-07-20T02:07:50;98449.19;;;9.27;66.46
62864;BME280;48954;59.950;11.014;2023-07-20T02:10:17;98447.48;;;9.20;66.44
62864;BME280;48954;59.950;11.014;2023-07-20T02:12:43;98444.91;;;9.12;66.58
62864;BME280;48954;59.950;11.014;2023-07-20T02:15:10;98442.92;;;9.05;66.61
62864;BME280;48954;59.950;11.014;2023-07-20T02:17:36;98443.56;;;8.99;67.03
62864;BME280;48954;59.950;11.014;2023-07-20T02:20:03;98440.24;;;8.93;67.33
62864;BME280;48954;59.950;11.014;2023-07-20T02:22:30;98439.19;;;8.89;67.32
62864;BME280;48954;59.950;11.014;2023-07-20T02:24:56;98439.93;;;8.85;67.57
62864;BME280;48954;59.950;11.014;2023-07-20T02:27:23;98439.66;;;8.80;67.56
62864;BME280;48954;59.950;11.014;2023-07-20T02:29:50;98440.88;;;8.75;67.81
62864;BME280;48954;59.950;11.014;2023-07-20T02:34:42;98445.91;;;8.68;68.08
62864;BME280;48954;59.950;11.014;2023-07-20T02:37:40;98452.98;;;8.64;68.17
62864;BME280;48954;59.950;11.014;2023-07-20T02:40:20;98447.36;;;8.57;68.10
62864;BME280;48954;59.950;11.014;2023-07-20T02:45:29;98452.77;;;8.48;68.63
62864;BME280;48954;59.950;11.014;2023-07-20T02:48:28;98453.81;;;8.43;68.69
62864;BME280;48954;59.950;11.014;2023-07-20T02:51:04;98451.25;;;8.38;68.53
62864;BME280;48954;59.950;11.014;2023-07-20T02:53:43;98455.20;;;8.34;68.86
62864;BME280;48954;59.950;11.014;2023-07-20T02:56:09;98447.86;;;8.30;69.01
62864;BME280;48954;59.950;11.014;2023-07-20T02:58:40;98448.73;;;8.30;69.02
62864;BME280;48954;59.950;11.014;2023-07-20T03:01:07;98446.90;;;8.28;69.21
62864;BME280;48954;59.950;11.014;2023-07-20T03:03:34;98451.67;;;8.28;69.25
62864;BME280;48954;59.950;11.014;2023-07-20T03:06:00;98449.39;;;8.27;69.51
62864;BME280;48954;59.950;11.014;2023-07-20T03:08:26;98451.27;;;8.27;69.50
62864;BME280;48954;59.950;11.014;2023-07-20T03:10:54;98450.59;;;8.29;69.50
62864;BME280;48954;59.950;11.014;2023-07-20T03:13:20;98454.32;;;8.33;69.62
62864;BME280;48954;59.950;11.014;2023-07-20T03:15:47;98453.28;;;8.37;69.77
62864;BME280;48954;59.950;11.014;2023-07-20T03:18:14;98452.40;;;8.42;69.91
62864;BME280;48954;59.950;11.014;2023-07-20T03:20:40;98457.76;;;8.47;69.84
62864;BME280;48954;59.950;11.014;2023-07-20T03:23:07;98457.10;;;8.51;69.72
62864;BME280;48954;59.950;11.014;2023-07-20T03:25:33;98460.12;;;8.55;69.70
62864;BME280;48954;59.950;11.014;2023-07-20T03:28:00;98463.96;;;8.58;69.85
62864;BME280;48954;59.950;11.014;2023-07-20T03:30:26;98463.68;;;8.60;69.65
62864;BME280;48954;59.950;11.014;2023-07-20T03:32:53;98464.73;;;8.63;69.72
62864;BME280;48954;59.950;11.014;2023-07-20T03:35:20;98466.33;;;8.66;69.87
62864;BME280;48954;59.950;11.014;2023-07-20T03:37:47;98461.34;;;8.68;69.76
62864;BME280;48954;59.950;11.014;2023-07-20T03:40:13;98465.20;;;8.73;70.17
62864;BME280;48954;59.950;11.014;2023-07-20T03:42:40;98459.45;;;8.77;69.91
62864;BME280;48954;59.950;11.014;2023-07-20T03:45:07;98462.09;;;8.84;69.94
62864;BME280;48954;59.950;11.014;2023-07-20T03:47:44;98459.96;;;8.91;69.88
62864;BME280;48954;59.950;11.014;2023-07-20T03:50:29;98459.23;;;8.98;69.99
62864;BME280;48954;59.950;11.014;2023-07-20T03:52:55;98458.67;;;9.06;69.87
62864;BME280;48954;59.950;11.014;2023-07-20T03:55:22;98457.14;;;9.12;69.88
62864;BME280;48954;59.950;11.014;2023-07-20T03:58:23;98460.52;;;9.21;69.84
62864;BME280;48954;59.950;11.014;2023-07-20T04:01:25;98457.13;;;9.31;69.70
62864;BME280;48954;59.950;11.014;2023-07-20T04:04:07;98453.32;;;9.38;69.69
62864;BME280;48954;59.950;11.014;2023-07-20T04:06:34;98454.48;;;9.46;69.65
62864;BME280;48954;59.950;11.014;2023-07-20T04:09:00;98454.04;;;9.54;69.64
62864;BME280;48954;59.950;11.014;2023-07-20T04:11:27;98458.88;;;9.61;69.64
62864;BME280;48954;59.950;11.014;2023-07-20T04:13:53;98454.66;;;9.67;69.66
62864;BME280;48954;59.950;11.014;2023-07-20T04:18:55;98457.48;;;9.82;69.77
62864;BME280;48954;59.950;11.014;2023-07-20T04:22:12;98460.58;;;9.91;69.73
62864;BME280;48954;59.950;11.014;2023-07-20T04:30:52;98460.67;;;10.30;69.39
62864;BME280;48954;59.950;11.014;2023-07-20T04:33:21;98461.33;;;10.43;68.97
62864;BME280;48954;59.950;11.014;2023-07-20T04:35:52;98456.26;;;10.55;69.03
62864;BME280;48954;59.950;11.014;2023-07-20T04:41:11;98450.30;;;10.76;68.68
62864;BME280;48954;59.950;11.014;2023-07-20T04:44:01;98448.41;;;10.88;68.60
62864;BME280;48954;59.950;11.014;2023-07-20T04:49:13;98454.48;;;11.12;68.54
62864;BME280;48954;59.950;11.014;2023-07-20T04:54:04;98450.59;;;11.33;68.20
62864;BME280;48954;59.950;11.014;2023-07-20T04:56:31;98448.77;;;11.43;68.07
62864;BME280;48954;59.950;11.014;2023-07-20T04:58:57;98442.85;;;11.55;67.75
62864;BME280;48954;59.950;11.014;2023-07-20T05:01:24;98445.89;;;11.66;67.37
62864;BME280;48954;59.950;11.014;2023-07-20T05:03:50;98445.08;;;11.78;67.20
62864;BME280;48954;59.950;11.014;2023-07-20T05:11:39;98451.29;;;12.19;65.71
62864;BME280;48954;59.950;11.014;2023-07-20T05:14:19;98451.52;;;12.34;65.42
62864;BME280;48954;59.950;11.014;2023-07-20T05:16:46;98456.89;;;12.48;65.15
62864;BME280;48954;59.950;11.014;2023-07-20T05:38:37;98450.90;;;13.63;63.50
62864;BME280;48954;59.950;11.014;2023-07-20T05:41:05;98458.47;;;13.78;63.23
62864;BME280;48954;59.950;11.014;2023-07-20T05:43:32;98455.95;;;13.92;62.92
62864;BME280;48954;59.950;11.014;2023-07-20T05:46:08;98451.48;;;14.03;62.56
62864;BME280;48954;59.950;11.014;2023-07-20T05:48:36;98455.52;;;14.14;61.77
62864;BME280;48954;59.950;11.014;2023-07-20T05:51:02;98455.20;;;14.19;60.85
62864;BME280;48954;59.950;11.014;2023-07-20T05:53:29;98455.92;;;14.26;60.47
62864;BME280;48954;59.950;11.014;2023-07-20T05:55:56;98457.70;;;14.34;60.12
62864;BME280;48954;59.950;11.014;2023-07-20T05:58:24;98456.18;;;14.44;59.63
62864;BME280;48954;59.950;11.014;2023-07-20T06:00:51;98457.43;;;14.51;59.27
62864;BME280;48954;59.950;11.014;2023-07-20T06:03:39;98455.35;;;14.57;58.51
62864;BME280;48954;59.950;11.014;2023-07-20T06:09:05;98458.91;;;14.75;58.39
62864;BME280;48954;59.950;11.014;2023-07-20T06:11:32;98458.73;;;14.85;58.04
62864;BME280;48954;59.950;11.014;2023-07-20T06:17:00;98461.68;;;14.94;57.15
62864;BME280;48954;59.950;11.014;2023-07-20T06:19:27;98460.27;;;15.04;57.15
62864;BME280;48954;59.950;11.014;2023-07-20T06:21:54;98454.09;;;15.14;57.25
62864;BME280;48954;59.950;11.014;2023-07-20T06:35:08;98448.48;;;15.49;55.29
62864;BME280;48954;59.950;11.014;2023-07-20T06:50:28;98436.83;;;16.00;53.51
62864;BME280;48954;59.950;11.014;2023-07-20T06:52:58;98442.58;;;16.06;53.49
62864;BME280;48954;59.950;11.014;2023-07-20T07:00:48;98441.91;;;16.04;53.04
62864;BME280;48954;59.950;11.014;2023-07-20T07:11:52;98436.45;;;16.03;52.71
62864;BME280;48954;59.950;11.014;2023-07-20T07:23:18;98426.13;;;16.20;52.38
62864;BME280;48954;59.950;11.014;2023-07-20T07:34:21;98424.13;;;16.78;51.65
62864;BME280;48954;59.950;11.014;2023-07-20T07:36:48;98431.24;;;16.82;51.14
62864;BME280;48954;59.950;11.014;2023-07-20T07:39:18;98429.43;;;16.78;51.14
62864;BME280;48954;59.950;11.014;2023-07-20T07:45:17;98434.04;;;16.68;50.96
62864;BME280;48954;59.950;11.014;2023-07-20T08:05:20;98447.35;;;16.46;50.46
62864;BME280;48954;59.950;11.014;2023-07-20T08:07:46;98450.66;;;16.44;50.12
62864;BME280;48954;59.950;11.014;2023-07-20T08:46:35;98457.55;;;16.43;50.21
62864;BME280;48954;59.950;11.014;2023-07-20T08:49:08;98455.29;;;16.57;49.97
62864;BME280;48954;59.950;11.014;2023-07-20T08:51:40;98453.25;;;16.74;49.87
62864;BME280;48954;59.950;11.014;2023-07-20T08:56:33;98452.28;;;17.01;49.73
62864;BME280;48954;59.950;11.014;2023-07-20T08:59:01;98458.35;;;17.22;50.53
62864;BME280;48954;59.950;11.014;2023-07-20T09:07:46;98453.89;;;17.88;49.87
62864;BME280;48954;59.950;11.014;2023-07-20T09:11:09;98454.23;;;17.95;49.12
62864;BME280;48954;59.950;11.014;2023-07-20T09:14:08;98454.35;;;17.96;48.49
62864;BME280;48954;59.950;11.014;2023-07-20T09:16:52;98452.14;;;17.99;48.29
62864;BME280;48954;59.950;11.014;2023-07-20T09:19:49;98453.22;;;17.97;48.16
62864;BME280;48954;59.950;11.014;2023-07-20T09:22:37;98449.70;;;17.89;47.64
62864;BME280;48954;59.950;11.014;2023-07-20T09:25:37;98454.45;;;17.84;48.59
62864;BME280;48954;59.950;11.014;2023-07-20T09:33:23;98453.34;;;17.93;47.77
62864;BME280;48954;59.950;11.014;2023-07-20T09:41:07;98452.95;;;17.56;47.61
62864;BME280;48954;59.950;11.014;2023-07-20T10:03:58;98458.41;;;16.88;47.78
62864;BME280;48954;59.950;11.014;2023-07-20T10:09:35;98455.63;;;16.82;47.65
62864;BME280;48954;59.950;11.014;2023-07-20T10:22:26;98441.09;;;17.51;48.03
62864;BME280;48954;59.950;11.014;2023-07-20T10:25:04;98442.28;;;17.85;47.31
62864;BME280;48954;59.950;11.014;2023-07-20T10:30:04;98435.17;;;18.33;46.64
62864;BME280;48954;59.950;11.014;2023-07-20T10:32:31;98436.84;;;18.60;46.11
62864;BME280;48954;59.950;11.014;2023-07-20T10:35:12;98434.00;;;18.82;45.83
62864;BME280;48954;59.950;11.014;2023-07-20T10:38:01;98430.67;;;19.04;44.85
62864;BME280;48954;59.950;11.014;2023-07-20T10:40:55;98426.11;;;19.16;44.06
62864;BME280;48954;59.950;11.014;2023-07-20T10:46:01;98426.18;;;19.38;43.73
62864;BME280;48954;59.950;11.014;2023-07-20T10:51:27;98424.38;;;19.54;43.42
62864;BME280;48954;59.950;11.014;2023-07-20T11:02:48;98415.02;;;19.24;42.16
62864;BME280;48954;59.950;11.014;2023-07-20T11:05:39;98409.11;;;19.34;41.75
62864;BME280;48954;59.950;11.014;2023-07-20T11:13:32;98406.52;;;19.47;40.97
62864;BME280;48954;59.950;11.014;2023-07-20T11:24:03;98401.12;;;19.44;41.60
62864;BME280;48954;59.950;11.014;2023-07-20T11:31:50;98410.09;;;19.61;40.44
62864;BME280;48954;59.950;11.014;2023-07-20T11:39:29;98402.10;;;19.78;40.77
62864;BME280;48954;59.950;11.014;2023-07-20T11:44:24;98396.96;;;19.58;40.13
62864;BME280;48954;59.950;11.014;2023-07-20T11:50:24;98389.06;;;19.94;39.67
62864;BME280;48954;59.950;11.014;2023-07-20T11:53:05;98389.70;;;20.05;39.34
62864;BME280;48954;59.950;11.014;2023-07-20T11:55:50;98386.45;;;20.19;39.12
62864;BME280;48954;59.950;11.014;2023-07-20T11:58:31;98383.17;;;20.27;38.79
62864;BME280;48954;59.950;11.014;2023-07-20T12:01:13;98388.70;;;20.20;38.79
62864;BME280;48954;59.950;11.014;2023-07-20T12:03:44;98390.48;;;20.22;38.64
62864;BME280;48954;59.950;11.014;2023-07-20T12:08:57;98383.98;;;20.64;38.59
62864;BME280;48954;59.950;11.014;2023-07-20T12:11:48;98382.26;;;20.61;38.34
62864;BME280;48954;59.950;11.014;2023-07-20T12:20:26;98383.64;;;20.80;38.50
62864;BME280;48954;59.950;11.014;2023-07-20T12:23:39;98386.34;;;20.89;38.48
62864;BME280;48954;59.950;11.014;2023-07-20T12:29:30;98386.88;;;20.95;37.88
62864;BME280;48954;59.950;11.014;2023-07-20T12:31:57;98384.84;;;21.00;37.95
62864;BME280;48954;59.950;11.014;2023-07-20T12:34:57;98385.29;;;21.07;37.97
62864;BME280;48954;59.950;11.014;2023-07-20T12:40:54;98385.73;;;21.13;37.46
62864;BME280;48954;59.950;11.014;2023-07-20T12:43:37;98384.58;;;21.18;37.42
62864;BME280;48954;59.950;11.014;2023-07-20T12:54:46;98378.77;;;21.29;37.05
62864;BME280;48954;59.950;11.014;2023-07-20T13:21:41;98368.49;;;21.52;36.02
62864;BME280;48954;59.950;11.014;2023-07-20T13:42:09;98369.17;;;21.33;35.24
62864;BME280;48954;59.950;11.014;2023-07-20T13:52:42;98373.23;;;21.06;36.72
62864;BME280;48954;59.950;11.014;2023-07-20T14:06:22;98390.90;;;20.34;38.43
62864;BME280;48954;59.950;11.014;2023-07-20T14:09:03;98392.46;;;20.30;38.62
62864;BME280;48954;59.950;11.014;2023-07-20T14:16:55;98408.55;;;20.36;39.60
62864;BME280;48954;59.950;11.014;2023-07-20T14:21:51;98409.34;;;20.04;40.07
62864;BME280;48954;59.950;11.014;2023-07-20T14:24:23;98405.80;;;19.85;40.37
62864;BME280;48954;59.950;11.014;2023-07-20T14:26:53;98401.92;;;19.67;40.61
62864;BME280;48954;59.950;11.014;2023-07-20T14:29:21;98399.23;;;19.55;41.00
62864;BME280;48954;59.950;11.014;2023-07-20T14:32:01;98396.21;;;19.43;40.74
62864;BME280;48954;59.950;11.014;2023-07-20T14:34:42;98394.20;;;19.36;41.23
62864;BME280;48954;59.950;11.014;2023-07-20T14:39:34;98387.98;;;19.27;40.38
62864;BME280;48954;59.950;11.014;2023-07-20T14:42:05;98385.36;;;19.39;40.38
62864;BME280;48954;59.950;11.014;2023-07-20T14:44:44;98384.52;;;19.68;40.26
62864;BME280;48954;59.950;11.014;2023-07-20T14:47:12;98379.90;;;19.96;40.53
62864;BME280;48954;59.950;11.014;2023-07-20T14:49:52;98375.66;;;20.19;40.11
62864;BME280;48954;59.950;11.014;2023-07-20T14:58:24;98370.67;;;22.48;37.77
62864;BME280;48954;59.950;11.014;2023-07-20T15:01:04;98363.82;;;22.26;37.12
62864;BME280;48954;59.950;11.014;2023-07-20T15:21:03;98359.70;;;21.52;35.57
62864;BME280;48954;59.950;11.014;2023-07-20T15:28:26;98363.84;;;21.74;35.45
62864;BME280;48954;59.950;11.014;2023-07-20T15:31:03;98361.31;;;21.69;35.57
62864;BME280;48954;59.950;11.014;2023-07-20T15:35:56;98363.89;;;21.46;35.78
62864;BME280;48954;59.950;11.014;2023-07-20T15:44:16;98365.26;;;21.92;36.09
62864;BME280;48954;59.950;11.014;2023-07-20T15:46:47;98378.61;;;21.94;36.56
62864;BME280;48954;59.950;11.014;2023-07-20T15:49:28;98367.91;;;21.99;36.16
62864;BME280;48954;59.950;11.014;2023-07-20T15:52:12;98373.48;;;22.00;36.23
62864;BME280;48954;59.950;11.014;2023-07-20T15:54:40;98371.01;;;22.03;35.94
62864;BME280;48954;59.950;11.014;2023-07-20T16:07:49;98369.33;;;22.05;35.86
62864;BME280;48954;59.950;11.014;2023-07-20T16:10:28;98373.21;;;21.84;35.61
62864;BME280;48954;59.950;11.014;2023-07-20T16:20:38;98374.34;;;21.44;36.13
62864;BME280;48954;59.950;11.014;2023-07-20T16:28:19;98385.14;;;21.35;36.52
62864;BME280;48954;59.950;11.014;2023-07-20T16:38:27;98384.81;;;20.59;40.09
62864;BME280;48954;59.950;11.014;2023-07-20T16:40:57;98389.20;;;20.41;40.59
62864;BME280;48954;59.950;11.014;2023-07-20T16:45:48;98411.77;;;20.00;41.51
62864;BME280;48954;59.950;11.014;2023-07-20T16:50:53;98449.35;;;19.07;43.57
62864;BME280;48954;59.950;11.014;2023-07-20T16:56:06;98435.10;;;17.94;46.19
62864;BME280;48954;59.950;11.014;2023-07-20T16:58:46;98439.13;;;17.47;47.49
62864;BME280;48954;59.950;11.014;2023-07-20T17:04:29;98451.77;;;16.65;49.66
62864;BME280;48954;59.950;11.014;2023-07-20T17:09:41;98461.40;;;16.00;50.81
62864;BME280;48954;59.950;11.014;2023-07-20T17:25:48;98515.23;;;15.05;52.82
62864;BME280;48954;59.950;11.014;2023-07-20T17:28:28;98523.91;;;14.95;53.16
62864;BME280;48954;59.950;11.014;2023-07-20T17:36:15;98539.10;;;14.72;54.97
62864;BME280;48954;59.950;11.014;2023-07-20T17:44:42;98531.90;;;14.55;58.22
62864;BME280;48954;59.950;11.014;2023-07-20T17:47:24;98540.23;;;14.48;58.38
62864;BME280;48954;59.950;11.014;2023-07-20T17:49:54;98540.79;;;14.41;58.99
62864;BME280;48954;59.950;11.014;2023-07-20T17:52:22;98542.93;;;14.31;59.57
62864;BME280;48954;59.950;11.014;2023-07-20T17:55:14;98536.58;;;14.21;60.29
62864;BME280;48954;59.950;11.014;2023-07-20T17:57:42;98539.91;;;14.13;61.01
62864;BME280;48954;59.950;11.014;2023-07-20T18:00:09;98532.79;;;14.07;61.48
62864;BME280;48954;59.950;11.014;2023-07-20T18:02:37;98525.38;;;14.04;61.90
62864;BME280;48954;59.950;11.014;2023-07-20T18:05:04;98518.24;;;14.01;62.21
62864;BME280;48954;59.950;11.014;2023-07-20T18:07:30;98510.77;;;13.99;62.71
62864;BME280;48954;59.950;11.014;2023-07-20T18:10:12;98502.88;;;13.98;63.02
62864;BME280;48954;59.950;11.014;2023-07-20T18:12:39;98500.86;;;13.95;63.23
62864;BME280;48954;59.950;11.014;2023-07-20T18:15:08;98496.04;;;13.94;63.38
62864;BME280;48954;59.950;11.014;2023-07-20T18:17:36;98496.70;;;13.91;63.54
62864;BME280;48954;59.950;11.014;2023-07-20T18:20:10;98491.81;;;13.90;63.91
62864;BME280;48954;59.950;11.014;2023-07-20T18:22:37;98495.10;;;13.87;63.87
62864;BME280;48954;59.950;11.014;2023-07-20T18:25:04;98488.24;;;13.85;64.13
62864;BME280;48954;59.950;11.014;2023-07-20T18:27:31;98488.48;;;13.86;64.58
62864;BME280;48954;59.950;11.014;2023-07-20T18:29:59;98486.34;;;13.88;64.91
62864;BME280;48954;59.950;11.014;2023-07-20T18:32:26;98483.01;;;13.88;65.30
62864;BME280;48954;59.950;11.014;2023-07-20T18:34:54;98477.56;;;13.88;65.79
62864;BME280;48954;59.950;11.014;2023-07-20T18:37:33;98476.16;;;13.86;65.89
62864;BME280;48954;59.950;11.014;2023-07-20T18:40:06;98472.74;;;13.80;66.03
62864;BME280;48954;59.950;11.014;2023-07-20T18:42:35;98471.14;;;13.75;66.53
62864;BME280;48954;59.950;11.014;2023-07-20T18:45:16;98469.83;;;13.73;66.79
62864;BME280;48954;59.950;11.014;2023-07-20T18:47:48;98468.19;;;13.71;67.04
62864;BME280;48954;59.950;11.014;2023-07-20T18:52:41;98470.90;;;13.68;67.18
62864;BME280;48954;59.950;11.014;2023-07-20T19:00:15;98472.02;;;13.60;67.68
62864;BME280;48954;59.950;11.014;2023-07-20T19:02:52;98468.94;;;13.60;68.15
62864;BME280;48954;59.950;11.014;2023-07-20T19:17:06;98464.42;;;13.69;68.71
62864;BME280;48954;59.950;11.014;2023-07-20T19:21:59;98467.73;;;13.70;68.70
62864;BME280;48954;59.950;11.014;2023-07-20T19:35:26;98474.71;;;13.74;69.25
62864;BME280;48954;59.950;11.014;2023-07-20T19:38:07;98469.35;;;13.74;69.34
62864;BME280;48954;59.950;11.014;2023-07-20T19:40:34;98469.73;;;13.75;69.34
62864;BME280;48954;59.950;11.014;2023-07-20T19:43:02;98471.16;;;13.75;69.49
62864;BME280;48954;59.950;11.014;2023-07-20T19:45:30;98471.40;;;13.74;69.35
62864;BME280;48954;59.950;11.014;2023-07-20T19:48:02;98471.57;;;13.73;69.70
62864;BME280;48954;59.950;11.014;2023-07-20T19:58:15;98476.84;;;13.58;70.61
62864;BME280;48954;59.950;11.014;2023-07-20T20:03:43;98478.02;;;13.52;70.94
62864;BME280;48954;59.950;11.014;2023-07-20T20:06:43;98483.45;;;13.44;71.25
62864;BME280;48954;59.950;11.014;2023-07-20T20:09:24;98487.92;;;13.38;71.37
62864;BME280;48954;59.950;11.014;2023-07-20T20:11:51;98489.39;;;13.34;71.56
62864;BME280;48954;59.950;11.014;2023-07-20T20:14:19;98492.10;;;13.30;71.57
62864;BME280;48954;59.950;11.014;2023-07-20T20:16:48;98494.52;;;13.25;71.97
62864;BME280;48954;59.950;11.014;2023-07-20T20:21:40;98495.44;;;13.15;72.44
62864;BME280;48954;59.950;11.014;2023-07-20T20:24:26;98496.33;;;13.12;72.64
62864;BME280;48954;59.950;11.014;2023-07-20T20:29:42;98497.33;;;13.05;72.76
62864;BME280;48954;59.950;11.014;2023-07-20T20:35:17;98502.84;;;12.97;73.08
62864;BME280;48954;59.950;11.014;2023-07-20T20:40:13;98498.70;;;12.87;73.10
62864;BME280;48954;59.950;11.014;2023-07-20T20:53:33;98495.08;;;12.67;73.44
62864;BME280;48954;59.950;11.014;2023-07-20T20:56:12;98496.94;;;12.58;73.53
62864;BME280;48954;59.950;11.014;2023-07-20T21:01:03;98496.79;;;12.43;73.78
62864;BME280;48954;59.950;11.014;2023-07-20T21:03:34;98499.88;;;12.37;73.90
62864;BME280;48954;59.950;11.014;2023-07-20T21:06:02;98498.66;;;12.33;73.96
62864;BME280;48954;59.950;11.014;2023-07-20T21:14:56;98498.91;;;12.23;74.05
62864;BME280;48954;59.950;11.014;2023-07-20T21:25:38;98512.20;;;12.12;74.21
62864;BME280;48954;59.950;11.014;2023-07-20T21:45:23;98499.98;;;11.94;74.86
62864;BME280;48954;59.950;11.014;2023-07-20T21:47:50;98499.67;;;11.90;74.80
62864;BME280;48954;59.950;11.014;2023-07-20T21:50:19;98502.35;;;11.87;74.85
62864;BME280;48954;59.950;11.014;2023-07-20T21:52:47;98500.79;;;11.83;74.84
62864;BME280;48954;59.950;11.014;2023-07-20T21:57:40;98501.49;;;11.72;74.92
62864;BME280;48954;59.950;11.014;2023-07-20T22:08:07;98501.15;;;11.50;75.05
62864;BME280;48954;59.950;11.014;2023-07-20T22:10:34;98499.11;;;11.42;75.35
62864;BME280;48954;59.950;11.014;2023-07-20T22:13:01;98496.05;;;11.36;75.33
62864;BME280;48954;59.950;11.014;2023-07-20T22:16:12;98498.71;;;11.31;75.44
62864;BME280;48954;59.950;11.014;2023-07-20T22:18:43;98493.95;;;11.27;75.48
62864;BME280;48954;59.950;11.014;2023-07-20T22:21:09;98498.66;;;11.24;75.62
62864;BME280;48954;59.950;11.014;2023-07-20T22:26:24;98493.86;;;11.12;75.84
62864;BME280;48954;59.950;11.014;2023-07-20T22:29:06;98493.15;;;11.09;75.93
62864;BME280;48954;59.950;11.014;2023-07-20T22:31:46;98495.51;;;11.07;76.04
62864;BME280;48954;59.950;11.014;2023-07-20T22:34:20;98493.94;;;11.07;76.41
62864;BME280;48954;59.950;11.014;2023-07-20T22:37:07;98491.96;;;11.07;76.34
62864;BME280;48954;59.950;11.014;2023-07-20T22:39:49;98490.32;;;11.06;76.35
62864;BME280;48954;59.950;11.014;2023-07-20T22:42:19;98496.53;;;11.03;76.52
62864;BME280;48954;59.950;11.014;2023-07-20T22:44:46;98494.17;;;11.01;76.44
62864;BME280;48954;59.950;11.014;2023-07-20T22:47:13;98502.19;;;10.97;76.39
62864;BME280;48954;59.950;11.014;2023-07-20T22:49:40;98505.88;;;10.93;76.22
62864;BME280;48954;59.950;11.014;2023-07-20T22:52:16;98506.90;;;10.88;76.39
62864;BME280;48954;59.950;11.014;2023-07-20T22:59:42;98519.85;;;10.83;76.61
62864;BME280;48954;59.950;11.014;2023-07-20T23:02:09;98519.36;;;10.78;76.43
62864;BME280;48954;59.950;11.014;2023-07-20T23:07:03;98530.60;;;10.71;76.54
62864;BME280;48954;59.950;11.014;2023-07-20T23:09:30;98531.38;;;10.70;76.70
62864;BME280;48954;59.950;11.014;2023-07-20T23:11:58;98532.15;;;10.68;76.79
62864;BME280;48954;59.950;11.014;2023-07-20T23:14:35;98529.71;;;10.65;76.53
62864;BME280;48954;59.950;11.014;2023-07-20T23:17:02;98525.79;;;10.61;76.36
62864;BME280;48954;59.950;11.014;2023-07-20T23:19:42;98525.52;;;10.56;76.49
62864;BME280;48954;59.950;11.014;2023-07-20T23:22:09;98524.58;;;10.54;76.76
62864;BME280;48954;59.950;11.014;2023-07-20T23:24:36;98524.98;;;10.51;76.78